createdAt,value
2018-07-05T00:01:38.459Z,8.73
2018-07-05T00:04:12.584Z,8.97
2018-07-05T00:06:46.512Z,11.90
2018-07-05T00:09:20.604Z,6.87
2018-07-05T00:11:54.672Z,7.20
2018-07-05T00:14:28.870Z,10.10
2018-07-05T00:17:02.856Z,13.27
2018-07-05T00:19:37.002Z,7.57
2018-07-05T00:22:10.901Z,6.27
2018-07-05T00:24:44.917Z,6.67
2018-07-05T00:27:18.849Z,5.80
2018-07-05T00:29:52.941Z,10.27
2018-07-05T00:32:26.847Z,8.20
2018-07-05T00:35:00.997Z,7.17
2018-07-05T00:37:34.981Z,7.07
2018-07-05T00:40:09.124Z,6.87
2018-07-05T00:42:43.162Z,6.93
2018-07-05T00:45:17.130Z,6.23
2018-07-05T00:47:51.104Z,8.93
2018-07-05T00:50:25.194Z,8.40
2018-07-05T00:52:59.237Z,8.93
2018-07-05T00:55:33.307Z,10.83
2018-07-05T00:58:07.328Z,8.67
2018-07-05T01:00:41.642Z,8.80
2018-07-05T01:03:15.488Z,9.97
2018-07-05T01:05:49.656Z,6.63
2018-07-05T01:08:23.722Z,8.13
2018-07-05T01:10:57.952Z,7.27
2018-07-05T01:13:32.060Z,7.03
2018-07-05T01:16:06.146Z,7.37
2018-07-05T01:18:40.298Z,10.20
2018-07-05T01:21:14.398Z,7.47
2018-07-05T01:23:48.279Z,8.10
2018-07-05T01:26:22.372Z,8.93
2018-07-05T01:28:56.405Z,7.07
2018-07-05T01:31:30.579Z,9.97
2018-07-05T01:34:04.642Z,9.40
2018-07-05T01:36:38.668Z,9.60
2018-07-05T01:39:12.626Z,7.47
2018-07-05T01:41:46.844Z,8.00
2018-07-05T01:44:20.887Z,12.20
2018-07-05T01:46:55.048Z,8.57
2018-07-05T01:49:28.981Z,9.17
2018-07-05T01:52:03.320Z,10.63
2018-07-05T01:54:37.253Z,8.33
2018-07-05T01:57:11.356Z,8.10
2018-07-05T01:59:45.258Z,9.80
2018-07-05T02:02:19.272Z,7.07
2018-07-05T02:04:53.402Z,7.27
2018-07-05T02:07:27.441Z,7.83
2018-07-05T02:10:01.320Z,9.13
2018-07-05T02:12:35.309Z,9.43
2018-07-05T02:15:09.365Z,12.80
2018-07-05T02:17:43.480Z,10.80
2018-07-05T02:20:17.336Z,10.57
2018-07-05T02:22:51.421Z,10.17
2018-07-05T02:25:25.473Z,11.27
2018-07-05T02:27:59.538Z,13.07
2018-07-05T02:30:33.398Z,7.93
2018-07-05T02:33:07.469Z,13.33
2018-07-05T02:35:41.509Z,9.13
2018-07-05T02:38:21.068Z,8.60
2018-07-05T02:40:55.136Z,8.97
2018-07-05T02:43:29.652Z,12.17
2018-07-05T02:46:03.721Z,11.67
2018-07-05T02:48:37.826Z,9.53
2018-07-05T02:51:11.876Z,9.90
2018-07-05T02:53:45.959Z,11.10
2018-07-05T02:56:19.963Z,11.00
2018-07-05T02:58:54.012Z,8.50
2018-07-05T03:01:27.911Z,9.27
2018-07-05T03:04:01.928Z,8.13
2018-07-05T03:06:35.905Z,9.23
2018-07-05T03:09:09.998Z,7.07
2018-07-05T03:11:43.982Z,8.97
2018-07-05T03:14:18.209Z,12.27
2018-07-05T03:16:52.299Z,10.83
2018-07-05T03:19:26.205Z,10.83
2018-07-05T03:22:00.866Z,10.03
2018-07-05T03:24:35.065Z,9.17
2018-07-05T03:27:08.950Z,10.43
2018-07-05T03:29:43.052Z,10.70
2018-07-05T03:32:17.015Z,11.63
2018-07-05T03:34:51.168Z,8.47
2018-07-05T03:37:25.077Z,11.07
2018-07-05T03:39:59.240Z,8.60
2018-07-05T03:42:33.263Z,8.83
2018-07-05T03:45:07.188Z,11.20
2018-07-05T03:47:41.255Z,8.97
2018-07-05T03:50:15.462Z,10.80
2018-07-05T03:52:49.472Z,10.27
2018-07-05T03:55:23.503Z,8.37
2018-07-05T03:57:57.701Z,8.77
2018-07-05T04:00:31.825Z,11.57
2018-07-05T04:03:05.685Z,13.67
2018-07-05T04:05:39.751Z,7.87
2018-07-05T04:08:13.802Z,7.40
2018-07-05T04:10:47.766Z,7.00
2018-07-05T04:13:21.656Z,8.80
2018-07-05T04:15:55.665Z,9.40
2018-07-05T04:18:29.711Z,11.37
2018-07-05T04:21:03.618Z,9.93
2018-07-05T04:23:37.552Z,8.13
2018-07-05T04:26:11.568Z,8.87
2018-07-05T04:28:45.536Z,10.20
2018-07-05T04:31:20.467Z,10.47
2018-07-05T04:33:54.531Z,11.70
2018-07-05T04:36:28.800Z,13.23
2018-07-05T04:39:02.936Z,9.83
2018-07-05T04:41:36.944Z,10.30
2018-07-05T04:44:11.080Z,8.67
2018-07-05T04:46:45.414Z,7.47
2018-07-05T04:49:19.511Z,7.67
2018-07-05T04:51:58.994Z,7.17
2018-07-05T04:54:32.973Z,10.10
2018-07-05T04:57:07.186Z,7.83
2018-07-05T04:59:41.221Z,7.03
2018-07-05T05:02:15.311Z,8.73
2018-07-05T05:04:49.426Z,7.97
2018-07-05T05:07:23.479Z,9.37
2018-07-05T05:09:57.448Z,7.43
2018-07-05T05:12:31.648Z,7.77
2018-07-05T05:15:05.662Z,9.80
2018-07-05T05:17:39.794Z,7.73
2018-07-05T05:20:13.857Z,8.57
2018-07-05T05:22:47.903Z,6.30
2018-07-05T05:25:22.040Z,9.50
2018-07-05T05:27:56.489Z,9.73
2018-07-05T05:30:30.547Z,11.07
2018-07-05T05:33:04.596Z,6.73
2018-07-05T05:35:38.550Z,10.00
2018-07-05T05:38:12.550Z,9.57
2018-07-05T05:40:46.492Z,6.60
2018-07-05T05:43:20.947Z,7.10
2018-07-05T05:45:55.084Z,8.87
2018-07-05T05:48:29.674Z,10.17
2018-07-05T05:51:03.713Z,7.77
2018-07-05T05:53:37.796Z,6.70
2018-07-05T05:56:11.825Z,7.60
2018-07-05T05:58:46.015Z,5.33
2018-07-05T06:01:20.132Z,8.33
2018-07-05T06:03:54.130Z,7.83
2018-07-05T06:06:28.158Z,9.17
2018-07-05T06:09:02.261Z,8.30
2018-07-05T06:11:36.281Z,6.00
2018-07-05T06:14:10.640Z,7.10
2018-07-05T06:16:44.761Z,4.63
2018-07-05T06:19:18.905Z,7.37
2018-07-05T06:21:52.990Z,6.37
2018-07-05T06:24:27.046Z,5.07
2018-07-05T06:27:01.129Z,5.07
2018-07-05T06:29:35.312Z,4.37
2018-07-05T06:32:09.366Z,5.55
2018-07-05T06:34:43.419Z,6.20
2018-07-05T06:37:17.370Z,8.47
2018-07-05T06:39:51.579Z,6.77
2018-07-05T06:42:25.572Z,6.63
2018-07-05T06:44:59.477Z,5.40
2018-07-05T06:47:33.479Z,11.33
2018-07-05T06:50:07.404Z,10.60
2018-07-05T06:52:41.349Z,5.80
2018-07-05T06:55:15.450Z,5.90
2018-07-05T06:57:49.382Z,8.87
2018-07-05T07:00:23.615Z,6.87
2018-07-05T07:02:57.804Z,8.40
2018-07-05T07:05:31.946Z,12.27
2018-07-05T07:08:06.312Z,8.73
2018-07-05T07:10:40.484Z,7.53
2018-07-05T07:13:14.595Z,12.03
2018-07-05T07:15:48.675Z,8.00
2018-07-05T07:18:22.823Z,9.00
2018-07-05T07:20:56.937Z,10.33
2018-07-05T07:23:31.124Z,5.40
2018-07-05T07:26:05.370Z,7.97
2018-07-05T07:28:39.455Z,9.73
2018-07-05T07:31:13.577Z,8.87
2018-07-05T07:33:47.713Z,7.23
2018-07-05T07:36:21.796Z,6.53
2018-07-05T07:38:55.808Z,7.83
2018-07-05T07:41:29.952Z,4.73
2018-07-05T07:43:58.103Z,7.67
2018-07-05T07:46:26.313Z,6.07
2018-07-05T07:48:54.489Z,7.73
2018-07-05T07:51:23.421Z,5.40
2018-07-05T07:53:52.149Z,6.77
2018-07-05T07:56:20.632Z,6.80
2018-07-05T07:58:48.738Z,8.20
2018-07-05T08:01:16.888Z,5.37
2018-07-05T08:03:45.198Z,5.23
2018-07-05T08:06:13.274Z,7.57
2018-07-05T08:08:41.457Z,5.40
2018-07-05T08:11:09.343Z,10.93
2018-07-05T08:13:37.271Z,4.77
2018-07-05T08:16:05.165Z,5.73
2018-07-05T08:18:33.082Z,3.70
2018-07-05T08:21:00.998Z,5.83
2018-07-05T08:23:28.908Z,5.27
2018-07-05T08:25:56.792Z,4.90
2018-07-05T08:28:24.704Z,8.70
2018-07-05T08:30:52.632Z,4.43
2018-07-05T08:33:20.515Z,5.97
2018-07-05T08:35:48.392Z,6.40
2018-07-05T08:38:16.291Z,7.03
2018-07-05T08:40:44.169Z,6.10
2018-07-05T08:43:12.084Z,7.73
2018-07-05T08:45:39.968Z,5.30
2018-07-05T08:48:07.870Z,9.33
2018-07-05T08:50:35.747Z,8.50
2018-07-05T08:53:03.639Z,7.87
2018-07-05T08:55:31.549Z,4.47
2018-07-05T08:57:59.430Z,4.00
2018-07-05T09:00:27.318Z,5.33
2018-07-05T09:02:55.195Z,6.70
2018-07-05T09:05:23.158Z,5.57
2018-07-05T09:07:51.050Z,3.30
2018-07-05T09:10:18.933Z,4.83
2018-07-05T09:12:46.812Z,5.33
2018-07-05T09:15:14.789Z,5.80
2018-07-05T09:17:42.856Z,3.43
2018-07-05T09:20:10.660Z,3.83
2018-07-05T09:22:38.604Z,5.43
2018-07-05T09:25:06.508Z,5.87
2018-07-05T09:27:34.448Z,2.93
2018-07-05T09:30:02.341Z,5.07
2018-07-05T09:32:30.262Z,4.00
2018-07-05T09:34:58.143Z,3.17
2018-07-05T09:37:26.089Z,7.63
2018-07-05T09:39:53.947Z,6.33
2018-07-05T09:42:22.011Z,12.20
2018-07-05T09:44:50.189Z,7.00
2018-07-05T09:47:18.242Z,5.93
2018-07-05T09:49:46.216Z,3.47
2018-07-05T09:52:14.392Z,6.20
2018-07-05T09:54:42.496Z,2.33
2018-07-05T09:57:10.776Z,4.92
2018-07-05T09:59:38.955Z,3.52
2018-07-05T10:02:07.134Z,5.25
2018-07-05T10:04:35.179Z,5.65
2018-07-05T10:07:03.389Z,7.00
2018-07-05T10:09:31.567Z,4.95
2018-07-05T10:11:59.511Z,4.58
2018-07-05T10:14:27.691Z,3.52
2018-07-05T10:16:55.768Z,2.33
2018-07-05T10:19:23.934Z,3.45
2018-07-05T10:21:52.052Z,3.45
2018-07-05T10:24:20.745Z,3.47
2018-07-05T10:26:48.717Z,2.20
2018-07-05T10:29:22.904Z,2.95
2018-07-05T10:31:56.944Z,3.08
2018-07-05T10:34:24.993Z,2.33
2018-07-05T10:36:53.072Z,6.72
2018-07-05T10:39:21.173Z,5.17
2018-07-05T10:41:55.264Z,2.58
2018-07-05T10:44:29.504Z,1.72
2018-07-05T10:47:03.822Z,4.53
2018-07-05T10:49:38.041Z,3.72
2018-07-05T10:52:12.154Z,2.02
2018-07-05T10:54:46.240Z,3.62
2018-07-05T10:57:20.352Z,3.77
2018-07-05T10:59:54.502Z,3.70
2018-07-05T11:02:28.788Z,4.47
2018-07-05T11:05:03.031Z,3.02
2018-07-05T11:07:37.216Z,2.00
2018-07-05T11:10:11.361Z,2.47
2018-07-05T11:12:45.543Z,5.45
2018-07-05T11:15:19.560Z,5.78
2018-07-05T11:17:53.776Z,6.33
2018-07-05T11:20:27.887Z,2.85
2018-07-05T11:23:02.108Z,3.95
2018-07-05T11:25:36.153Z,3.80
2018-07-05T11:28:10.161Z,5.65
2018-07-05T11:30:44.273Z,7.67
2018-07-05T11:33:18.491Z,4.33
2018-07-05T11:35:52.785Z,1.85
2018-07-05T11:38:26.922Z,2.00
2018-07-05T11:41:01.140Z,4.10
2018-07-05T11:43:35.354Z,3.30
2018-07-05T11:46:09.398Z,3.40
2018-07-05T11:48:43.583Z,4.00
2018-07-05T11:51:17.912Z,2.25
2018-07-05T11:53:51.984Z,2.37
2018-07-05T11:56:26.128Z,1.85
2018-07-05T11:59:00.245Z,1.82
2018-07-05T12:01:34.462Z,4.53
2018-07-05T12:04:08.555Z,2.00
2018-07-05T12:06:42.892Z,2.98
2018-07-05T12:09:16.975Z,2.30
2018-07-05T12:11:51.224Z,5.35
2018-07-05T12:14:25.511Z,2.95
2018-07-05T12:16:59.624Z,2.83
2018-07-05T12:19:33.850Z,2.87
2018-07-05T12:22:07.955Z,2.30
2018-07-05T12:24:41.998Z,2.77
2018-07-05T12:27:16.029Z,2.83
2018-07-05T12:29:50.304Z,2.52
2018-07-05T12:32:24.412Z,2.52
2018-07-05T12:34:58.555Z,3.37
2018-07-05T12:37:32.873Z,3.33
2018-07-05T12:40:07.093Z,2.77
2018-07-05T12:42:41.306Z,3.83
2018-07-05T12:45:15.387Z,4.58
2018-07-05T12:47:49.711Z,2.47
2018-07-05T12:50:23.955Z,4.42
2018-07-05T12:52:58.244Z,2.77
2018-07-05T12:55:32.460Z,2.60
2018-07-05T12:58:06.606Z,2.87
2018-07-05T13:00:40.588Z,4.03
2018-07-05T13:03:14.695Z,4.85
2018-07-05T13:05:48.845Z,5.53
2018-07-05T13:08:22.963Z,5.10
2018-07-05T13:10:58.212Z,4.33
2018-07-05T13:13:32.414Z,3.72
2018-07-05T13:16:06.603Z,2.72
2018-07-05T13:18:40.745Z,2.27
2018-07-05T13:21:15.166Z,3.37
2018-07-05T13:23:49.280Z,4.17
2018-07-05T13:26:23.483Z,3.42
2018-07-05T13:28:57.713Z,3.02
2018-07-05T13:31:32.003Z,3.75
2018-07-05T13:34:06.042Z,3.72
2018-07-05T13:36:40.053Z,3.92
2018-07-05T13:39:14.270Z,3.05
2018-07-05T13:41:48.355Z,4.97
2018-07-05T13:44:22.396Z,3.52
2018-07-05T13:46:56.480Z,5.62
2018-07-05T13:49:30.828Z,4.25
2018-07-05T13:52:05.147Z,2.60
2018-07-05T13:54:39.333Z,7.05
2018-07-05T13:57:13.348Z,3.52
2018-07-05T13:59:47.559Z,3.00
2018-07-05T14:02:21.676Z,3.58
2018-07-05T14:04:55.921Z,4.55
2018-07-05T14:07:30.035Z,3.37
2018-07-05T14:10:04.252Z,3.25
2018-07-05T14:12:38.644Z,4.97
2018-07-05T14:15:23.735Z,2.92
2018-07-05T14:17:57.921Z,3.65
2018-07-05T14:20:32.168Z,4.72
2018-07-05T14:23:06.252Z,4.50
2018-07-05T14:25:40.474Z,5.30
2018-07-05T14:28:14.511Z,3.50
2018-07-05T14:30:48.727Z,3.62
2018-07-05T14:33:22.637Z,6.05
2018-07-05T14:35:56.648Z,8.50
2018-07-05T14:38:30.732Z,3.02
2018-07-05T14:41:04.980Z,7.35
2018-07-05T14:43:39.195Z,5.12
2018-07-05T14:46:13.382Z,3.08
2018-07-05T14:48:47.599Z,5.03
2018-07-05T14:51:21.846Z,9.15
2018-07-05T14:53:55.860Z,5.05
2018-07-05T14:56:30.072Z,3.70
2018-07-05T14:59:04.079Z,3.72
2018-07-05T15:01:38.221Z,4.42
2018-07-05T15:04:12.197Z,5.20
2018-07-05T15:06:46.395Z,6.00
2018-07-05T15:09:20.492Z,5.05
2018-07-05T15:11:55.498Z,4.03
2018-07-05T15:14:30.181Z,12.35
2018-07-05T15:17:04.319Z,17.48
2018-07-05T15:19:38.323Z,10.05
2018-07-05T15:22:12.442Z,5.67
2018-07-05T15:24:46.552Z,7.75
2018-07-05T15:27:20.667Z,3.98
2018-07-05T15:29:54.605Z,6.28
2018-07-05T15:32:28.674Z,4.22
2018-07-05T15:35:02.666Z,8.33
2018-07-05T15:37:36.814Z,6.70
2018-07-05T15:40:10.827Z,8.15
2018-07-05T15:42:44.959Z,3.98
2018-07-05T15:45:18.939Z,7.03
2018-07-05T15:47:52.988Z,3.67
2018-07-05T15:50:26.891Z,4.83
2018-07-05T15:53:01.045Z,3.55
2018-07-05T15:55:35.137Z,4.10
2018-07-05T15:58:09.115Z,3.90
2018-07-05T16:00:43.127Z,4.75
2018-07-05T16:03:17.116Z,5.72
2018-07-05T16:05:51.187Z,7.25
2018-07-05T16:08:25.412Z,5.45
2018-07-05T16:10:59.446Z,4.87
2018-07-05T16:13:33.354Z,6.22
2018-07-05T16:16:07.552Z,8.73
2018-07-05T16:18:41.631Z,8.30
2018-07-05T16:21:15.663Z,7.75
2018-07-05T16:23:49.740Z,5.97
2018-07-05T16:26:23.734Z,5.65
2018-07-05T16:28:57.772Z,4.83
2018-07-05T16:31:31.607Z,6.10
2018-07-05T16:34:05.814Z,4.65
2018-07-05T16:36:39.696Z,6.45
2018-07-05T16:39:13.695Z,3.58
2018-07-05T16:41:47.647Z,4.50
2018-07-05T16:44:21.756Z,4.33
2018-07-05T16:46:55.783Z,4.70
2018-07-05T16:49:29.893Z,6.10
2018-07-05T16:52:03.943Z,6.30
2018-07-05T16:54:38.099Z,4.22
2018-07-05T16:57:12.168Z,6.62
2018-07-05T16:59:46.292Z,4.15
2018-07-05T17:02:20.256Z,5.90
2018-07-05T17:04:54.371Z,6.55
2018-07-05T17:07:28.428Z,7.58
2018-07-05T17:10:02.544Z,4.40
2018-07-05T17:12:36.508Z,12.82
2018-07-05T17:15:10.752Z,6.78
2018-07-05T17:17:44.840Z,4.72
2018-07-05T17:20:18.894Z,4.05
2018-07-05T17:22:53.088Z,4.67
2018-07-05T17:25:27.223Z,4.80
2018-07-05T17:28:01.240Z,6.40
2018-07-05T17:30:35.393Z,7.28
2018-07-05T17:33:09.496Z,8.03
2018-07-05T17:35:43.590Z,6.62
2018-07-05T17:38:17.546Z,5.45
2018-07-05T17:40:52.014Z,7.83
2018-07-05T17:43:25.865Z,6.30
2018-07-05T17:45:59.971Z,5.63
2018-07-05T17:48:34.009Z,6.05
2018-07-05T17:51:08.195Z,6.43
2018-07-05T17:53:42.067Z,4.07
2018-07-05T17:56:16.200Z,7.50
2018-07-05T17:58:50.409Z,6.30
2018-07-05T18:01:24.413Z,3.85
2018-07-05T18:03:58.264Z,8.93
2018-07-05T18:06:32.284Z,7.73
2018-07-05T18:09:06.280Z,4.47
2018-07-05T18:11:40.508Z,6.20
2018-07-05T18:14:14.412Z,7.97
2018-07-05T18:16:48.733Z,11.30
2018-07-05T18:19:22.808Z,6.70
2018-07-05T18:21:56.856Z,6.03
2018-07-05T18:24:30.873Z,6.67
2018-07-05T18:27:04.969Z,9.70
2018-07-05T18:29:38.963Z,5.50
2018-07-05T18:32:12.867Z,6.17
2018-07-05T18:34:47.019Z,9.23
2018-07-05T18:37:20.927Z,9.50
2018-07-05T18:39:55.073Z,7.37
2018-07-05T18:42:29.178Z,7.83
2018-07-05T18:45:03.204Z,5.77
2018-07-05T18:47:37.629Z,5.13
2018-07-05T18:50:11.632Z,6.97
2018-07-05T18:52:45.643Z,5.90
2018-07-05T18:55:19.602Z,6.23
2018-07-05T18:57:53.730Z,8.23
2018-07-05T19:00:28.032Z,7.17
2018-07-05T19:03:02.146Z,9.10
2018-07-05T19:05:36.545Z,7.63
2018-07-05T19:08:10.619Z,10.67
2018-07-05T19:10:44.771Z,9.00
2018-07-05T19:13:18.908Z,11.10
2018-07-05T19:15:52.995Z,10.73
2018-07-05T19:18:27.443Z,10.60
2018-07-05T19:21:01.530Z,11.67
2018-07-05T19:23:36.388Z,14.80
2018-07-05T19:26:10.688Z,40.10
2018-07-05T19:28:44.898Z,25.87
2018-07-05T19:31:19.118Z,20.73
2018-07-05T19:33:53.466Z,25.07
2018-07-05T19:36:27.757Z,21.87
2018-07-05T19:39:02.099Z,17.43
2018-07-05T19:41:36.387Z,16.07
2018-07-05T19:44:10.704Z,14.17
2018-07-05T19:46:44.712Z,17.17
2018-07-05T19:49:18.728Z,16.87
2018-07-05T19:51:52.766Z,15.47
2018-07-05T19:54:27.056Z,20.03
2018-07-05T19:57:00.996Z,15.43
2018-07-05T19:59:35.108Z,16.27
2018-07-05T20:02:09.325Z,18.77
2018-07-05T20:04:43.540Z,13.77
2018-07-05T20:07:17.763Z,16.43
2018-07-05T20:09:51.871Z,17.03
2018-07-05T20:12:26.089Z,17.33
2018-07-05T20:15:00.432Z,7.70
2018-07-05T20:17:34.488Z,10.63
2018-07-05T20:20:08.603Z,11.67
2018-07-05T20:22:42.616Z,9.37
2018-07-05T20:25:16.764Z,10.37
2018-07-05T20:27:50.691Z,7.20
2018-07-05T20:30:24.886Z,8.10
2018-07-05T20:32:58.999Z,6.60
2018-07-05T20:35:32.926Z,5.93
2018-07-05T20:38:06.996Z,9.63
2018-07-05T20:40:41.166Z,6.70
2018-07-05T20:43:14.978Z,6.47
2018-07-05T20:46:04.050Z,6.23
2018-07-05T20:48:58.398Z,6.33
2018-07-05T20:51:40.229Z,8.73
2018-07-05T20:54:15.309Z,9.40
2018-07-05T20:56:52.463Z,10.47
2018-07-05T20:59:34.452Z,12.23
2018-07-05T21:02:11.995Z,11.73
2018-07-05T21:04:46.047Z,12.30
2018-07-05T21:07:21.113Z,11.70
2018-07-05T21:09:58.208Z,16.73
2018-07-05T21:12:34.874Z,16.87
2018-07-05T21:15:09.165Z,16.43
2018-07-05T21:17:43.034Z,18.53
2018-07-05T21:20:17.129Z,15.53
2018-07-05T21:25:40.405Z,14.30
2018-07-05T21:28:14.386Z,18.13
2018-07-05T21:30:48.910Z,11.80
2018-07-05T21:33:23.149Z,12.03
2018-07-05T21:35:57.686Z,19.23
2018-07-05T21:38:31.877Z,13.80
2018-07-05T21:41:08.720Z,15.13
2018-07-05T21:43:48.624Z,12.77
2018-07-05T21:46:27.024Z,11.70
2018-07-05T21:58:28.768Z,10.43
2018-07-05T22:01:02.776Z,12.53
2018-07-05T22:03:39.013Z,12.23
2018-07-05T22:06:13.621Z,10.07
2018-07-05T22:08:47.777Z,9.63
2018-07-05T22:11:21.902Z,8.37
2018-07-05T22:13:56.168Z,11.13
2018-07-05T22:16:34.142Z,10.73
2018-07-05T22:19:15.787Z,9.10
2018-07-05T22:21:55.217Z,10.20
2018-07-05T22:24:35.846Z,7.87
2018-07-05T22:27:21.855Z,9.20
2018-07-05T22:30:04.224Z,10.83
2018-07-05T22:37:23.333Z,10.87
2018-07-05T22:39:57.620Z,13.93
2018-07-05T22:42:32.510Z,14.27
2018-07-05T22:45:06.527Z,17.43
2018-07-05T22:47:45.409Z,17.20
2018-07-05T22:50:20.480Z,16.47
2018-07-05T22:52:54.589Z,20.47
2018-07-05T22:55:28.634Z,13.83
2018-07-05T22:58:05.319Z,16.27
2018-07-05T23:00:40.232Z,15.93
2018-07-05T23:03:16.202Z,14.37
2018-07-05T23:05:53.443Z,11.90
2018-07-05T23:08:28.122Z,11.57
2018-07-05T23:11:03.193Z,11.13
2018-07-05T23:13:38.045Z,12.20
2018-07-05T23:16:13.528Z,13.87
2018-07-05T23:18:47.534Z,12.43
2018-07-05T23:21:21.685Z,10.13
2018-07-05T23:23:57.704Z,14.93
2018-07-05T23:26:31.726Z,9.77
2018-07-05T23:29:05.691Z,13.03
2018-07-05T23:31:43.094Z,16.77
2018-07-05T23:34:17.615Z,14.97
2018-07-05T23:36:51.905Z,14.00
2018-07-05T23:39:26.585Z,15.57
2018-07-05T23:42:01.654Z,14.07
2018-07-05T23:44:35.610Z,11.03
2018-07-05T23:47:09.603Z,10.93
2018-07-05T23:49:43.644Z,9.37
2018-07-05T23:52:17.716Z,8.43
2018-07-05T23:54:51.691Z,9.40
2018-07-05T23:57:25.810Z,11.30
2018-07-05T23:59:59.922Z,12.77
